Time;durP1;ratioP1;P1;durP2;ratioP2;P2;SDS_P1;SDS_P2;PMS_P1;PMS_P2;Temp;Humidity;BMP_temperature;BMP_pressure;BME280_temperature;BME280_humidity;BME280_pressure;Samples;Min_cycle;Max_cycle;Signal;HPM_P1;HPM_P2
2022/09/08 00:02:24;;;;;;;29.67;26.48;;;16.90;99.90;;;;;;5133465;27;20035;-61
2022/09/08 00:04:50;;;;;;;26.83;24.08;;;16.90;99.90;;;;;;5116353;27;20050;-61
2022/09/08 00:07:16;;;;;;;27.90;25.05;;;16.90;99.90;;;;;;5116094;27;20110;-61
2022/09/08 00:09:42;;;;;;;27.27;24.25;;;16.90;99.90;;;;;;5133628;27;20156;-61
2022/09/08 00:12:08;;;;;;;26.83;24.00;;;16.90;99.90;;;;;;5134069;27;20046;-61
2022/09/08 00:14:34;;;;;;;25.20;22.48;;;16.90;99.90;;;;;;5134510;27;20046;-61
2022/09/08 00:17:01;;;;;;;26.85;23.08;;;16.90;99.90;;;;;;5115064;27;20487;-61
2022/09/08 00:19:26;;;;;;;27.48;23.65;;;16.90;99.90;;;;;;5115745;27;20046;-61
2022/09/08 00:21:53;;;;;;;28.75;22.55;;;17.00;99.90;;;;;;5134517;27;20522;-61
2022/09/08 00:24:18;;;;;;;27.23;24.13;;;16.90;99.90;;;;;;5114429;27;20043;-61
2022/09/08 00:26:44;;;;;;;29.88;25.05;;;16.90;99.90;;;;;;5116275;27;20065;-61
2022/09/08 00:29:10;;;;;;;30.60;25.52;;;16.90;99.90;;;;;;5115345;27;20046;-61
2022/09/08 00:31:40;;;;;;;26.88;23.50;;;16.90;99.90;;;;;;5115044;27;20039;-61
2022/09/08 00:34:06;;;;;;;29.38;24.00;;;17.00;99.90;;;;;;5133623;27;20035;-61
2022/09/08 00:36:33;;;;;;;28.40;24.88;;;17.00;99.90;;;;;;5115766;27;20551;-61
2022/09/08 00:39:02;;;;;;;25.15;22.17;;;17.00;99.90;;;;;;5133469;27;20096;-61
2022/09/08 00:41:28;;;;;;;24.95;22.23;;;17.00;99.90;;;;;;5115551;27;20091;-61
2022/09/08 00:44:00;;;;;;;29.13;25.92;;;17.00;99.90;;;;;;5098390;27;20031;-61
2022/09/08 00:46:39;;;;;;;25.45;22.75;;;17.00;99.90;;;;;;5114981;27;20047;-61
2022/09/08 00:49:13;;;;;;;26.73;23.92;;;17.00;99.90;;;;;;5097887;27;20514;-61
2022/09/08 00:51:42;;;;;;;25.70;23.00;;;17.00;99.90;;;;;;5097581;27;20031;-61
2022/09/08 00:54:10;;;;;;;26.92;23.92;;;16.90;99.90;;;;;;5114903;27;20077;-62
2022/09/08 00:56:37;;;;;;;25.15;22.52;;;16.90;99.90;;;;;;5098315;27;20043;-61
2022/09/08 00:59:03;;;;;;;27.75;23.58;;;16.90;99.90;;;;;;5114029;27;20499;-61
2022/09/08 01:01:32;;;;;;;26.05;23.35;;;16.90;99.90;;;;;;5098779;27;20505;-61
2022/09/08 01:03:58;;;;;;;26.90;24.05;;;16.90;99.90;;;;;;5115434;27;20431;-61
2022/09/08 01:12:45;;;;;;;26.25;23.60;;;16.80;99.90;;;;;;5132131;27;20053;-61
2022/09/08 01:15:23;;;;;;;27.70;23.45;;;16.70;99.90;;;;;;5114686;27;20049;-61
2022/09/08 01:17:51;;;;;;;24.35;21.77;;;16.70;99.90;;;;;;5133720;27;20046;-61
2022/09/08 01:20:20;;;;;;;25.00;22.20;;;16.70;99.90;;;;;;5113656;27;20051;-61
2022/09/08 01:23:42;;;;;;;26.20;23.23;;;16.60;99.90;;;;;;5115015;27;20047;-61
2022/09/08 01:26:32;;;;;;;23.75;21.25;;;16.60;99.90;;;;;;5076350;28;20051;-61
2022/09/08 01:29:05;;;;;;;24.30;21.00;;;16.60;99.90;;;;;;5133520;27;20035;-61
2022/09/08 01:31:32;;;;;;;24.50;21.52;;;16.50;99.90;;;;;;5114972;27;20495;-61
2022/09/08 01:34:01;;;;;;;23.00;20.40;;;16.50;99.90;;;;;;5097083;28;20118;-61
2022/09/08 01:36:27;;;;;;;25.85;22.20;;;16.50;99.90;;;;;;5133175;28;20080;-61
2022/09/08 01:38:53;;;;;;;25.38;22.00;;;16.50;99.90;;;;;;5114732;28;20387;-62
2022/09/08 01:41:18;;;;;;;24.33;21.30;;;16.40;99.90;;;;;;5113648;28;20046;-61
2022/09/08 01:43:44;;;;;;;23.40;20.98;;;16.50;99.90;;;;;;5133268;28;20043;-61
2022/09/08 01:46:10;;;;;;;24.75;20.98;;;16.50;99.90;;;;;;5114188;28;20046;-61
2022/09/08 01:48:36;;;;;;;21.15;18.90;;;16.50;99.90;;;;;;5132328;28;20034;-61
2022/09/08 01:51:04;;;;;;;24.55;21.83;;;16.50;99.90;;;;;;5097603;28;20483;-61
2022/09/08 01:53:30;;;;;;;25.08;22.30;;;16.50;99.90;;;;;;5133309;28;20039;-62
2022/09/08 01:55:56;;;;;;;22.77;20.05;;;16.50;99.90;;;;;;5132409;28;20402;-61
2022/09/08 01:58:22;;;;;;;23.00;19.73;;;16.50;99.90;;;;;;5114000;28;20047;-61
2022/09/08 02:00:48;;;;;;;21.67;19.48;;;16.60;99.90;;;;;;5114652;28;20041;-61
2022/09/08 02:03:13;;;;;;;24.30;21.20;;;16.60;99.90;;;;;;5131511;28;20039;-61
2022/09/08 02:05:41;;;;;;;23.85;21.25;;;16.60;99.90;;;;;;5114511;28;20046;-61
2022/09/08 02:08:08;;;;;;;25.90;21.02;;;16.60;99.90;;;;;;5114268;28;20043;-61
2022/09/08 02:10:34;;;;;;;22.02;19.73;;;16.60;99.90;;;;;;5114091;28;20039;-61
2022/09/08 02:13:01;;;;;;;26.67;21.20;;;16.60;99.90;;;;;;5132906;28;20042;-61
2022/09/08 02:15:27;;;;;;;23.58;21.08;;;16.60;99.90;;;;;;5113511;28;20043;-61
2022/09/08 02:17:53;;;;;;;24.80;20.80;;;16.60;99.90;;;;;;5114580;28;20051;-61
2022/09/08 02:20:20;;;;;;;23.85;18.83;;;16.60;99.90;;;;;;5113843;28;20078;-62
2022/09/08 02:22:46;;;;;;;23.80;21.30;;;16.60;99.90;;;;;;5113724;28;20055;-61
2022/09/08 02:25:12;;;;;;;24.45;20.60;;;16.60;99.90;;;;;;5113724;28;20039;-61
2022/09/08 02:27:38;;;;;;;22.75;20.35;;;16.60;99.90;;;;;;5114490;28;20122;-61
2022/09/08 02:30:04;;;;;;;22.95;20.50;;;16.60;99.90;;;;;;5113565;28;20110;-61
2022/09/08 02:32:29;;;;;;;24.15;19.88;;;16.70;99.90;;;;;;5132785;28;20487;-61
2022/09/08 02:34:55;;;;;;;23.67;21.20;;;16.60;99.90;;;;;;5132612;28;20039;-61
2022/09/08 02:37:21;;;;;;;25.10;19.40;;;16.70;99.90;;;;;;5113218;28;20039;-61
2022/09/08 02:39:47;;;;;;;24.85;22.23;;;16.60;99.90;;;;;;5132835;28;20070;-61
2022/09/08 02:42:13;;;;;;;30.27;23.75;;;16.70;99.90;;;;;;5132158;28;20043;-61
2022/09/08 02:44:39;;;;;;;24.83;21.77;;;16.70;99.90;;;;;;5131810;28;20045;-61
2022/09/08 02:47:05;;;;;;;25.13;22.42;;;16.70;99.90;;;;;;5113683;28;20043;-61
2022/09/08 02:49:32;;;;;;;25.42;21.85;;;16.70;99.90;;;;;;5114674;27;20507;-61
2022/09/08 02:51:59;;;;;;;25.00;21.98;;;16.70;99.90;;;;;;5135654;27;20110;-61
2022/09/08 02:54:24;;;;;;;24.25;21.70;;;16.70;99.90;;;;;;5117343;27;20100;-61
2022/09/08 02:56:50;;;;;;;27.52;23.85;;;16.70;99.90;;;;;;5136137;27;20039;-61
2022/09/08 02:59:16;;;;;;;27.67;23.65;;;16.70;99.90;;;;;;5116681;27;20066;-61
2022/09/08 03:01:46;;;;;;;25.55;21.05;;;16.70;99.90;;;;;;5136116;27;20422;-62
2022/09/08 03:04:13;;;;;;;29.75;25.67;;;16.70;99.90;;;;;;5135497;27;20035;-61
2022/09/08 03:06:39;;;;;;;26.85;24.15;;;16.70;99.90;;;;;;5116740;27;20046;-61
2022/09/08 03:09:06;;;;;;;25.92;23.02;;;16.80;99.90;;;;;;5117244;27;20066;-61
2022/09/08 03:11:32;;;;;;;31.88;26.27;;;16.80;99.90;;;;;;5135895;27;20039;-61
2022/09/08 03:13:59;;;;;;;28.33;25.10;;;16.70;99.90;;;;;;5135014;27;20392;-61
2022/09/08 03:16:26;;;;;;;32.58;25.60;;;16.80;99.90;;;;;;5135236;27;20043;-61
2022/09/08 03:18:53;;;;;;;28.38;25.27;;;16.80;99.90;;;;;;5135113;27;20070;-61
2022/09/08 03:21:19;;;;;;;27.27;24.30;;;16.80;99.90;;;;;;5134846;27;20051;-61
2022/09/08 03:23:44;;;;;;;29.42;25.25;;;16.80;99.90;;;;;;5135587;27;20041;-61
2022/09/08 03:26:13;;;;;;;32.40;25.08;;;16.80;99.90;;;;;;5134228;27;20027;-61
2022/09/08 03:28:40;;;;;;;30.00;25.65;;;16.80;99.90;;;;;;5100355;27;20122;-61
2022/09/08 03:31:11;;;;;;;29.35;25.95;;;16.80;99.90;;;;;;5116495;27;20031;-61
2022/09/08 03:33:37;;;;;;;31.58;26.67;;;16.80;99.90;;;;;;5117043;27;20043;-61
2022/09/08 03:36:05;;;;;;;30.73;27.40;;;16.80;99.90;;;;;;5134986;27;20039;-61
2022/09/08 03:38:32;;;;;;;30.55;27.25;;;16.80;99.90;;;;;;5117010;27;20049;-61
2022/09/08 03:40:58;;;;;;;30.40;27.20;;;16.80;99.90;;;;;;5116017;27;20463;-61
2022/09/08 03:43:24;;;;;;;30.70;26.35;;;16.80;99.90;;;;;;5134821;27;20077;-61
2022/09/08 03:45:49;;;;;;;30.20;26.90;;;16.80;99.90;;;;;;5135211;27;20392;-61
2022/09/08 03:48:15;;;;;;;33.92;27.55;;;16.80;99.90;;;;;;5115540;27;20039;-61
2022/09/08 03:50:41;;;;;;;34.97;29.10;;;16.80;99.90;;;;;;5135146;27;20028;-61
2022/09/08 03:53:08;;;;;;;33.72;30.15;;;16.80;99.90;;;;;;5134485;27;20384;-61
2022/09/08 03:55:34;;;;;;;33.22;29.63;;;16.80;99.90;;;;;;5134175;27;20395;-60
2022/09/08 03:57:59;;;;;;;34.97;29.95;;;16.80;99.90;;;;;;5116564;27;20050;-61
2022/09/08 04:00:27;;;;;;;36.00;30.95;;;16.80;99.90;;;;;;5134137;27;20031;-61
2022/09/08 04:02:53;;;;;;;39.38;31.13;;;16.80;99.90;;;;;;5115661;27;20043;-61
2022/09/08 04:05:19;;;;;;;34.53;30.05;;;16.80;99.90;;;;;;5134228;27;20046;-61
2022/09/08 04:07:45;;;;;;;36.35;31.63;;;16.80;99.90;;;;;;5099270;27;20534;-61
2022/09/08 04:10:12;;;;;;;37.03;31.70;;;16.80;99.90;;;;;;5133417;27;20069;-61
2022/09/08 04:12:38;;;;;;;36.72;32.60;;;16.80;99.90;;;;;;5134895;27;20042;-62
2022/09/08 04:15:05;;;;;;;31.17;25.92;;;16.80;99.90;;;;;;5098006;27;20073;-61
2022/09/08 04:17:31;;;;;;;36.05;31.90;;;16.80;99.90;;;;;;5099353;27;20050;-62
2022/09/08 04:19:57;;;;;;;34.97;31.15;;;16.90;99.90;;;;;;5116210;27;20055;-61
2022/09/08 04:22:23;;;;;;;39.97;32.58;;;16.80;99.90;;;;;;5114850;27;20459;-61
2022/09/08 04:24:49;;;;;;;39.83;33.47;;;16.90;99.90;;;;;;5115795;27;20047;-61
2022/09/08 04:27:17;;;;;;;36.55;29.73;;;16.90;99.90;;;;;;5134101;27;20391;-61
2022/09/08 04:29:42;;;;;;;34.53;30.20;;;16.90;99.90;;;;;;5115064;27;20039;-61
2022/09/08 04:32:08;;;;;;;43.80;34.78;;;16.90;99.90;;;;;;5133826;27;20038;-62
2022/09/08 04:34:35;;;;;;;36.80;31.98;;;16.90;99.90;;;;;;5134268;27;20166;-61
2022/09/08 04:37:01;;;;;;;34.03;28.17;;;17.00;99.90;;;;;;5115573;27;20043;-61
2022/09/08 04:39:27;;;;;;;38.05;32.22;;;17.00;99.90;;;;;;5115375;27;20621;-61
2022/09/08 04:41:53;;;;;;;43.47;35.90;;;17.00;99.90;;;;;;5115803;27;20051;-61
2022/09/08 04:44:18;;;;;;;41.55;36.88;;;17.00;99.90;;;;;;5114034;27;20122;-61
2022/09/08 04:46:44;;;;;;;40.70;36.40;;;17.00;99.90;;;;;;5115625;27;20039;-61
2022/09/08 04:49:10;;;;;;;48.58;40.15;;;17.00;99.90;;;;;;5098271;27;20031;-62
2022/09/08 04:51:36;;;;;;;45.38;38.55;;;17.00;99.90;;;;;;5114714;27;20056;-61
2022/09/08 04:54:03;;;;;;;42.78;38.08;;;16.90;99.90;;;;;;5115968;27;20039;-61
2022/09/08 04:56:30;;;;;;;43.30;38.45;;;16.90;99.90;;;;;;5135253;27;20031;-61
2022/09/08 04:59:00;;;;;;;39.00;33.67;;;16.90;99.90;;;;;;5134253;27;20092;-61
2022/09/08 05:01:32;;;;;;;45.30;39.33;;;16.90;99.90;;;;;;5116497;27;20031;-61
2022/09/08 05:04:01;;;;;;;42.88;35.90;;;16.90;99.90;;;;;;5133626;27;20468;-61
2022/09/08 05:06:28;;;;;;;43.15;36.83;;;16.90;99.90;;;;;;5114329;27;20031;-61
2022/09/08 05:08:56;;;;;;;44.80;39.17;;;16.90;99.90;;;;;;5114971;27;20046;-61
2022/09/08 05:11:23;;;;;;;44.55;38.17;;;16.90;99.90;;;;;;5114385;27;20450;-61
2022/09/08 05:13:51;;;;;;;49.30;38.88;;;16.90;99.90;;;;;;5132332;27;20027;-61
2022/09/08 05:16:23;;;;;;;36.50;32.47;;;16.90;99.90;;;;;;5133638;27;20032;-61
2022/09/08 05:18:52;;;;;;;46.17;41.03;;;16.90;99.90;;;;;;5096751;27;20027;-61
2022/09/08 05:21:18;;;;;;;47.40;40.42;;;16.90;99.90;;;;;;5114648;28;20118;-61
2022/09/08 05:23:44;;;;;;;47.63;40.20;;;16.90;99.90;;;;;;5115322;27;20046;-61
2022/09/08 05:26:13;;;;;;;42.00;37.28;;;16.90;99.90;;;;;;5132602;27;20081;-61
2022/09/08 05:28:40;;;;;;;45.42;38.53;;;16.90;99.90;;;;;;5115357;28;20039;-61
2022/09/08 05:31:08;;;;;;;48.50;40.55;;;16.90;99.90;;;;;;5132897;27;20039;-61
2022/09/08 05:33:34;;;;;;;47.58;39.88;;;16.90;99.90;;;;;;5114078;27;20035;-62
2022/09/08 05:36:00;;;;;;;49.58;39.53;;;16.90;99.90;;;;;;5114689;28;20039;-61
2022/09/08 05:38:26;;;;;;;49.40;39.63;;;16.90;99.90;;;;;;5115087;28;20422;-62
2022/09/08 05:40:52;;;;;;;52.92;40.88;;;16.90;99.90;;;;;;5113561;28;20051;-62
2022/09/08 05:43:18;;;;;;;48.45;39.65;;;16.90;99.90;;;;;;5114557;28;20043;-62
2022/09/08 05:45:45;;;;;;;40.65;35.55;;;16.90;99.90;;;;;;5114857;28;20047;-61
2022/09/08 05:48:11;;;;;;;50.38;42.13;;;17.00;99.90;;;;;;5114074;28;20043;-61
2022/09/08 05:50:37;;;;;;;41.20;35.53;;;17.00;99.90;;;;;;5115072;28;20039;-60
2022/09/08 05:53:03;;;;;;;38.67;34.17;;;17.00;99.90;;;;;;5114053;28;20039;-61
2022/09/08 05:55:29;;;;;;;42.83;35.22;;;17.00;99.90;;;;;;5132358;28;20090;-61
2022/09/08 05:57:57;;;;;;;37.53;32.08;;;17.00;99.90;;;;;;5114076;28;20043;-61
2022/09/08 06:00:23;;;;;;;39.47;33.97;;;17.00;99.90;;;;;;5114720;28;20046;-61
2022/09/08 06:02:52;;;;;;;45.38;36.72;;;17.00;99.90;;;;;;5131657;28;20039;-61
2022/09/08 06:05:19;;;;;;;39.20;33.75;;;17.10;99.90;;;;;;5097569;28;20047;-61
2022/09/08 06:07:46;;;;;;;42.63;34.92;;;17.00;99.90;;;;;;5113581;28;20180;-61
2022/09/08 06:10:12;;;;;;;42.50;36.28;;;17.00;99.90;;;;;;5097679;28;20055;-61
2022/09/08 06:12:38;;;;;;;41.17;34.25;;;17.00;99.90;;;;;;5133042;28;20411;-61
2022/09/08 06:15:04;;;;;;;34.08;30.17;;;17.00;99.90;;;;;;5113394;28;20463;-61
2022/09/08 06:17:31;;;;;;;37.20;31.65;;;17.10;99.90;;;;;;5132821;28;20096;-61
2022/09/08 06:19:57;;;;;;;44.67;35.50;;;17.10;99.90;;;;;;5113650;28;20522;-61
2022/09/08 06:22:23;;;;;;;40.42;33.47;;;17.10;99.90;;;;;;5113889;28;20039;-62
2022/09/08 06:24:48;;;;;;;47.08;38.97;;;17.10;99.90;;;;;;5134749;27;20047;-61
2022/09/08 06:27:44;;;;;;;50.78;40.20;;;17.10;99.90;;;;;;5136780;27;20035;-61
2022/09/08 06:30:13;;;;;;;45.55;38.92;;;17.10;99.90;;;;;;5136013;27;20039;-60
2022/09/08 06:32:51;;;;;;;46.60;35.05;;;17.10;99.90;;;;;;5136661;27;20536;-61
2022/09/08 06:35:50;;;;;;;43.90;38.70;;;17.20;99.90;;;;;;5124543;27;20078;-61
2022/09/08 06:38:25;;;;;;;52.25;42.42;;;17.20;99.90;;;;;;5077386;28;20044;-60
2022/09/08 06:41:17;;;;;;;40.10;32.83;;;17.20;99.90;;;;;;5105191;28;20043;-61
2022/09/08 06:43:48;;;;;;;46.45;36.65;;;17.10;99.90;;;;;;5126287;27;20054;-61
2022/09/08 06:46:36;;;;;;;52.20;43.33;;;17.10;99.90;;;;;;5097472;28;20404;-61
2022/09/08 06:49:02;;;;;;;47.80;39.15;;;17.10;99.90;;;;;;5100652;27;20118;-60
2022/09/08 06:51:48;;;;;;;55.72;44.88;;;17.10;99.90;;;;;;5104310;27;20485;-60
2022/09/08 06:54:26;;;;;;;53.33;43.75;;;17.10;99.90;;;;;;5100536;28;20043;-61
2022/09/08 06:57:02;;;;;;;49.72;40.83;;;17.10;99.90;;;;;;5096101;28;20079;-60
2022/09/08 06:59:27;;;;;;;51.80;41.75;;;17.00;99.90;;;;;;5097559;28;20066;-60
2022/09/08 07:01:56;;;;;;;50.45;41.13;;;17.00;99.90;;;;;;5119025;27;20483;-60
2022/09/08 07:04:51;;;;;;;57.42;45.50;;;17.00;99.90;;;;;;5116886;27;20051;-61
2022/09/08 07:07:19;;;;;;;53.38;43.22;;;17.00;99.90;;;;;;5096120;27;20039;-60
2022/09/08 07:10:00;;;;;;;46.22;38.17;;;17.00;99.90;;;;;;5121041;27;20039;-61
2022/09/08 07:12:32;;;;;;;38.35;33.42;;;17.00;99.90;;;;;;5101417;27;20039;-61
2022/09/08 07:15:20;;;;;;;40.42;34.08;;;17.00;99.90;;;;;;5106776;27;20035;-61
2022/09/08 07:18:22;;;;;;;33.78;29.13;;;17.00;99.90;;;;;;5125281;27;20040;-61
2022/09/08 07:20:49;;;;;;;30.75;26.13;;;17.00;99.90;;;;;;5085542;28;20087;-61
2022/09/08 07:23:23;;;;;;;27.25;24.05;;;17.00;99.90;;;;;;5077215;28;20039;-61
2022/09/08 07:26:00;;;;;;;28.27;25.27;;;17.00;99.90;;;;;;5093122;27;20079;-61
2022/09/08 07:28:30;;;;;;;33.38;29.63;;;17.00;99.90;;;;;;5093917;28;20055;-61
2022/09/08 07:31:01;;;;;;;32.95;28.83;;;17.00;99.90;;;;;;5078590;27;20118;-61
2022/09/08 07:33:37;;;;;;;30.95;25.70;;;17.00;99.90;;;;;;5102858;28;20039;-61
2022/09/08 07:36:29;;;;;;;34.72;29.83;;;17.00;99.90;;;;;;5108847;28;20082;-61
2022/09/08 07:39:03;;;;;;;31.95;27.42;;;17.00;99.90;;;;;;5111417;28;20461;-61
2022/09/08 07:41:40;;;;;;;34.10;28.40;;;17.00;99.90;;;;;;5100947;27;20095;-61
2022/09/08 07:44:13;;;;;;;32.78;26.48;;;17.00;99.90;;;;;;5112019;27;20068;-61
2022/09/08 07:46:41;;;;;;;31.85;26.85;;;16.90;99.90;;;;;;5113823;27;20065;-61
2022/09/08 07:49:49;;;;;;;31.17;26.27;;;16.90;99.90;;;;;;5113280;27;20078;-62
2022/09/08 07:52:44;;;;;;;36.58;30.60;;;16.90;99.90;;;;;;5125268;27;20081;-61
2022/09/08 07:55:29;;;;;;;32.03;27.73;;;16.90;99.90;;;;;;5087259;28;20091;-61
2022/09/08 07:58:18;;;;;;;29.73;24.65;;;16.90;99.90;;;;;;5110158;27;20054;-61
2022/09/08 08:00:58;;;;;;;14.38;11.90;;;16.90;99.90;;;;;;5095471;27;20043;-61
2022/09/08 08:03:48;;;;;;;13.63;10.40;;;16.90;99.90;;;;;;5092909;28;20067;-62
2022/09/08 08:06:24;;;;;;;13.00;8.43;;;16.80;99.90;;;;;;5128170;27;20075;-62
2022/09/08 08:09:13;;;;;;;9.02;4.75;;;16.60;99.90;;;;;;5131366;27;20092;-62
2022/09/08 08:12:00;;;;;;;7.30;5.32;;;16.50;99.90;;;;;;5132458;27;20091;-61
2022/09/08 08:14:35;;;;;;;6.82;4.10;;;16.50;99.90;;;;;;5108664;27;20154;-61
2022/09/08 08:17:04;;;;;;;6.78;3.33;;;16.40;99.90;;;;;;5093756;27;20125;-61
2022/09/08 08:19:52;;;;;;;6.55;3.63;;;16.30;99.90;;;;;;5100344;27;20086;-62
2022/09/08 08:22:40;;;;;;;5.85;2.92;;;16.20;99.90;;;;;;5109603;27;20047;-61
2022/09/08 08:25:23;;;;;;;6.30;2.20;;;16.20;99.90;;;;;;5124001;27;20434;-60
2022/09/08 08:28:03;;;;;;;6.22;2.67;;;16.10;99.90;;;;;;5092815;28;20693;-60
2022/09/08 08:30:28;;;;;;;12.43;4.75;;;16.10;99.90;;;;;;5112289;27;20040;-59
2022/09/08 08:33:08;;;;;;;7.28;4.03;;;16.10;99.90;;;;;;5103435;27;20040;-59
2022/09/08 08:35:48;;;;;;;5.90;2.92;;;16.10;99.90;;;;;;5108804;27;20056;-59
2022/09/08 08:38:20;;;;;;;6.28;3.33;;;16.00;99.90;;;;;;5072991;28;20040;-59
2022/09/08 08:40:57;;;;;;;7.32;2.53;;;16.00;99.90;;;;;;5092929;28;20050;-59
2022/09/08 08:43:39;;;;;;;5.78;2.30;;;15.80;99.90;;;;;;5111573;27;20778;-60
2022/09/08 08:46:30;;;;;;;7.78;2.45;;;15.70;99.90;;;;;;5090580;28;20149;-60
2022/09/08 08:49:14;;;;;;;5.45;2.13;;;15.60;99.90;;;;;;5095357;27;20118;-60
2022/09/08 08:51:57;;;;;;;5.57;1.83;;;15.60;99.90;;;;;;5111682;27;20058;-60
2022/09/08 08:54:51;;;;;;;4.63;2.00;;;15.60;99.90;;;;;;5118112;27;20047;-59
2022/09/08 08:57:36;;;;;;;5.35;2.05;;;15.60;99.90;;;;;;5123054;27;20035;-59
2022/09/08 09:00:21;;;;;;;5.82;2.00;;;15.70;99.90;;;;;;5130004;27;20054;-60
2022/09/08 09:02:50;;;;;;;;;;;15.70;99.90;;;;;;5128052;27;20071;-59
2022/09/08 09:05:43;;;;;;;6.03;2.50;;;15.70;99.90;;;;;;5086160;28;19972;-59
2022/09/08 09:08:33;;;;;;;5.63;1.90;;;15.70;99.90;;;;;;5103883;28;20047;-60
2022/09/08 09:11:53;;;;;;;4.70;2.03;;;15.70;99.90;;;;;;5094226;27;20058;-60
2022/09/08 09:14:40;;;;;;;3.70;1.83;;;15.80;99.90;;;;;;5053526;28;20499;-60
2022/09/08 09:17:06;;;;;;;4.40;2.08;;;15.80;99.90;;;;;;5131848;27;20168;-59
2022/09/08 09:20:09;;;;;;;5.10;1.88;;;15.80;99.90;;;;;;5114310;27;20126;-60
2022/09/08 09:23:08;;;;;;;8.15;2.53;;;15.90;99.90;;;;;;5098095;27;20448;-62
2022/09/08 09:25:55;;;;;;;6.18;2.53;;;15.90;99.90;;;;;;5109341;28;20082;-61
2022/09/08 09:28:41;;;;;;;2.95;1.30;;;16.00;99.90;;;;;;5115324;27;20039;-61
2022/09/08 09:31:13;;;;;;;5.57;1.73;;;16.00;99.90;;;;;;5114420;28;20502;-60
2022/09/08 09:33:44;;;;;;;5.80;2.10;;;16.00;99.90;;;;;;5121197;27;20050;-60
2022/09/08 09:36:19;;;;;;;4.72;1.60;;;16.00;99.90;;;;;;5098880;27;20068;-61
2022/09/08 09:39:09;;;;;;;4.78;1.60;;;16.00;99.90;;;;;;5101739;28;20040;-61
2022/09/08 09:42:05;;;;;;;4.97;1.80;;;16.10;99.90;;;;;;5115971;28;20074;-60
2022/09/08 09:44:34;;;;;;;6.18;1.73;;;16.20;99.90;;;;;;5112624;28;20075;-61
2022/09/08 09:47:21;;;;;;;4.63;1.98;;;16.20;99.90;;;;;;5111289;28;20046;-62
2022/09/08 09:50:31;;;;;;;3.95;1.60;;;16.20;99.90;;;;;;5093786;28;20548;-61
2022/09/08 09:53:23;;;;;;;4.65;2.10;;;16.30;99.90;;;;;;5111975;28;20053;-62
2022/09/08 09:56:41;;;;;;;2.80;1.40;;;16.30;99.90;;;;;;5098852;28;20046;-61
2022/09/08 09:59:40;;;;;;;4.40;1.70;;;16.40;99.90;;;;;;5083680;28;20052;-61
2022/09/08 10:02:38;;;;;;;5.00;1.70;;;16.40;99.90;;;;;;5115329;27;20047;-60
2022/09/08 10:05:34;;;;;;;3.78;1.70;;;16.50;99.90;;;;;;5123949;27;20445;-60
2022/09/08 10:08:30;;;;;;;4.05;1.80;;;16.60;99.90;;;;;;5115137;27;20039;-60
2022/09/08 10:11:30;;;;;;;4.95;2.03;;;16.60;99.90;;;;;;5125499;27;20103;-60
2022/09/08 10:14:02;;;;;;;6.30;2.00;;;16.70;99.90;;;;;;5131302;27;20122;-61
2022/09/08 10:16:28;;;;;;;4.22;2.10;;;16.60;99.90;;;;;;5132670;27;20035;-60
2022/09/08 10:18:59;;;;;;;6.57;2.42;;;16.70;99.90;;;;;;5133570;27;20091;-61
2022/09/08 10:21:56;;;;;;;5.57;2.47;;;16.70;99.90;;;;;;5096422;27;20094;-61
2022/09/08 10:24:31;;;;;;;5.28;2.58;;;16.80;99.90;;;;;;5101961;27;20043;-60
2022/09/08 10:27:16;;;;;;;;;;;16.70;99.90;;;;;;5096829;27;20039;-60
2022/09/08 10:30:12;;;;;;;5.45;2.50;;;16.70;99.90;;;;;;5133827;27;19988;-60
2022/09/08 10:32:57;;;;;;;6.30;2.83;;;16.70;99.90;;;;;;5105534;27;20056;-61
2022/09/08 10:35:45;;;;;;;5.75;2.55;;;16.60;99.90;;;;;;5084291;28;20126;-60
2022/09/08 10:38:45;;;;;;;5.18;2.63;;;16.60;99.90;;;;;;5093975;28;20043;-61
2022/09/08 10:41:48;;;;;;;6.65;2.92;;;16.60;99.90;;;;;;5091529;28;20048;-60
2022/09/08 10:44:37;;;;;;;5.60;3.35;;;16.60;99.90;;;;;;5096231;27;20053;-60
2022/09/08 10:47:14;;;;;;;7.82;3.97;;;16.50;99.90;;;;;;5087098;28;20040;-60
2022/09/08 10:50:14;;;;;;;6.70;3.47;;;16.50;99.90;;;;;;5123921;27;20039;-60
2022/09/08 10:52:45;;;;;;;7.05;4.60;;;16.60;99.90;;;;;;5115003;27;20047;-60
2022/09/08 10:55:42;;;;;;;7.20;4.38;;;16.60;99.90;;;;;;5113634;27;20127;-60
2022/09/08 10:58:50;;;;;;;7.57;4.68;;;16.60;99.90;;;;;;5073047;28;20047;-60
2022/09/08 11:01:34;;;;;;;7.57;4.30;;;16.70;99.90;;;;;;5092221;27;20050;-60
2022/09/08 11:04:27;;;;;;;7.38;4.22;;;16.60;99.90;;;;;;5104366;27;20399;-60
2022/09/08 11:07:02;;;;;;;7.07;4.80;;;16.70;99.90;;;;;;5082902;28;20052;-60
2022/09/08 11:10:06;;;;;;;8.85;3.88;;;16.70;99.90;;;;;;5096309;28;20070;-60
2022/09/08 11:13:22;;;;;;;5.38;2.88;;;16.80;99.90;;;;;;5077081;28;20040;-60
2022/09/08 11:16:09;;;;;;;4.93;2.50;;;16.80;99.90;;;;;;5054327;27;20062;-60
2022/09/08 11:18:57;;;;;;;5.47;2.80;;;16.80;99.90;;;;;;5078507;28;20127;-59
2022/09/08 11:21:25;;;;;;;6.30;2.50;;;16.80;99.90;;;;;;5115059;28;20412;-66
2022/09/08 11:23:57;;;;;;;5.35;2.20;;;16.80;99.90;;;;;;5097740;28;20051;-60
2022/09/08 11:26:37;;;;;;;5.45;1.98;;;16.80;99.90;;;;;;5114585;28;20050;-60
2022/09/08 11:29:12;;;;;;;4.72;1.77;;;16.90;99.90;;;;;;5096578;28;20448;-60
2022/09/08 11:32:07;;;;;;;5.30;1.70;;;16.90;99.90;;;;;;5115644;27;20027;-60
2022/09/08 11:34:52;;;;;;;;;;;17.00;99.90;;;;;;5105707;27;20046;-60
2022/09/08 11:37:50;;;;;;;4.30;1.35;;;17.00;99.90;;;;;;5115941;27;19923;-60
2022/09/08 11:40:35;;;;;;;4.40;1.77;;;17.00;99.90;;;;;;5115270;27;20096;-60
2022/09/08 11:43:06;;;;;;;5.45;1.60;;;17.00;99.90;;;;;;5081629;28;20131;-60
2022/09/08 11:45:49;;;;;;;4.00;1.58;;;17.10;99.90;;;;;;5085756;27;20124;-60
2022/09/08 11:48:39;;;;;;;6.85;1.90;;;17.10;99.90;;;;;;5116628;27;20110;-61
2022/09/08 11:51:33;;;;;;;4.22;1.65;;;17.20;99.90;;;;;;5116201;27;20054;-60
2022/09/08 11:54:22;;;;;;;4.85;2.10;;;17.20;99.90;;;;;;5131664;27;20042;-60
2022/09/08 11:57:27;;;;;;;5.35;2.10;;;17.30;99.90;;;;;;5112441;27;20544;-60
2022/09/08 12:00:03;;;;;;;5.22;1.75;;;17.30;99.90;;;;;;5044553;27;20053;-60
2022/09/08 12:02:39;;;;;;;8.18;2.10;;;17.40;99.90;;;;;;5097757;28;20369;-61
2022/09/08 12:05:30;;;;;;;7.32;1.95;;;17.40;99.90;;;;;;5123957;27;20043;-61
2022/09/08 12:08:18;;;;;;;5.75;2.05;;;17.50;99.90;;;;;;5115231;27;20043;-60
2022/09/08 12:10:53;;;;;;;4.00;1.48;;;17.40;99.90;;;;;;5100076;27;20054;-60
2022/09/08 12:13:40;;;;;;;5.03;1.23;;;17.40;99.90;;;;;;5112947;27;20031;-60
2022/09/08 12:16:08;;;;;;;4.75;1.50;;;17.40;99.90;;;;;;5095136;28;20101;-60
2022/09/08 12:18:40;;;;;;;4.80;1.85;;;17.40;99.90;;;;;;5095856;28;20040;-60
2022/09/08 12:21:24;;;;;;;4.88;2.10;;;17.40;99.90;;;;;;5112192;27;20055;-60
2022/09/08 12:24:02;;;;;;;4.13;1.77;;;17.40;99.90;;;;;;5103415;27;20486;-61
2022/09/08 12:27:01;;;;;;;4.57;1.80;;;17.40;99.90;;;;;;5134799;27;20373;-60
2022/09/08 12:29:45;;;;;;;5.05;1.60;;;17.40;99.90;;;;;;5115609;27;20552;-60
2022/09/08 12:32:41;;;;;;;4.13;1.70;;;17.50;99.90;;;;;;5134616;27;20031;-60
2022/09/08 12:35:22;;;;;;;4.50;1.92;;;17.50;99.90;;;;;;5114911;27;20046;-60
2022/09/08 12:38:05;;;;;;;5.13;2.00;;;17.50;99.90;;;;;;5104255;27;20564;-60
2022/09/08 12:41:08;;;;;;;5.25;1.80;;;17.50;99.90;;;;;;5110319;27;20035;-60
2022/09/08 12:43:41;;;;;;;6.28;2.50;;;17.50;99.90;;;;;;5097646;27;20039;-60
2022/09/08 12:46:13;;;;;;;5.32;2.60;;;17.50;99.90;;;;;;5133323;27;20043;-60
2022/09/08 12:49:07;;;;;;;5.25;2.20;;;17.40;99.90;;;;;;5093532;28;20039;-60
2022/09/08 12:51:38;;;;;;;6.05;2.58;;;17.40;99.90;;;;;;5095192;28;20035;-60
2022/09/08 12:54:33;;;;;;;5.22;2.28;;;17.50;99.90;;;;;;5112857;28;20119;-60
2022/09/08 12:57:30;;;;;;;5.45;2.42;;;17.50;99.90;;;;;;5111718;28;20046;-60
2022/09/08 13:00:11;;;;;;;5.20;2.40;;;17.50;99.90;;;;;;5106185;28;20479;-60
2022/09/08 13:02:48;;;;;;;5.13;2.70;;;17.60;99.90;;;;;;5114481;27;20039;-60
2022/09/08 13:05:15;;;;;;;6.70;2.90;;;17.60;99.90;;;;;;5132008;27;20087;-60
2022/09/08 13:07:48;;;;;;;8.18;4.00;;;17.70;99.90;;;;;;5115657;27;20391;-61
2022/09/08 13:10:20;;;;;;;6.70;3.92;;;17.70;99.90;;;;;;5115755;27;20039;-61
2022/09/08 13:13:15;;;;;;;6.95;3.88;;;17.80;99.90;;;;;;5094130;28;20043;-60
2022/09/08 13:15:41;;;;;;;7.07;4.35;;;17.80;99.90;;;;;;5110674;28;20065;-61
2022/09/08 13:18:21;;;;;;;6.93;4.20;;;17.80;99.90;;;;;;5090943;28;20059;-60
2022/09/08 13:20:57;;;;;;;6.45;4.13;;;17.80;99.90;;;;;;5091626;28;20138;-60
2022/09/08 13:23:33;;;;;;;8.57;5.38;;;17.90;99.90;;;;;;5087826;28;20047;-60
2022/09/08 13:26:30;;;;;;;10.57;6.18;;;18.00;99.90;;;;;;5081104;27;20413;-60